sensor_id;sensor_type;location;lat;lon;timestamp;P1;durP1;ratioP1;P2;durP2;ratioP2
32451;SDS011;45528;52.102;5.242;2023-05-16T00:02:25;13.1;;;2.6;;
32451;SDS011;45528;52.102;5.242;2023-05-16T00:04:01;18.5;;;2.5;;
32451;SDS011;45528;52.102;5.242;2023-05-16T00:05:37;16.8;;;2.1;;
32451;SDS011;45528;52.102;5.242;2023-05-16T00:07:13;15.3;;;2.6;;
32451;SDS011;45528;52.102;5.242;2023-05-16T00:10:25;16.2;;;2.4;;
32451;SDS011;45528;52.102;5.242;2023-05-16T00:12:02;16.8;;;2.4;;
32451;SDS011;45528;52.102;5.242;2023-05-16T00:13:38;9.4;;;2.1;;
32451;SDS011;45528;52.102;5.242;2023-05-16T00:16:50;12.0;;;2.0;;
32451;SDS011;45528;52.102;5.242;2023-05-16T00:18:26;15.6;;;2.4;;
32451;SDS011;45528;52.102;5.242;2023-05-16T00:20:03;15.2;;;2.7;;
32451;SDS011;45528;52.102;5.242;2023-05-16T00:23:16;14.0;;;1.9;;
32451;SDS011;45528;52.102;5.242;2023-05-16T00:24:52;14.1;;;2.4;;
32451;SDS011;45528;52.102;5.242;2023-05-16T00:26:28;16.11;;;2.21;;
32451;SDS011;45528;52.102;5.242;2023-05-16T00:29:40;17.61;;;2.31;;
32451;SDS011;45528;52.102;5.242;2023-05-16T00:31:17;14.1;;;2.1;;
32451;SDS011;45528;52.102;5.242;2023-05-16T00:32:53;12.8;;;2.1;;
32451;SDS011;45528;52.102;5.242;2023-05-16T00:34:29;13.9;;;2.0;;
32451;SDS011;45528;52.102;5.242;2023-05-16T00:37:42;12.1;;;2.0;;
32451;SDS011;45528;52.102;5.242;2023-05-16T00:39:18;14.8;;;2.5;;
32451;SDS011;45528;52.102;5.242;2023-05-16T00:40:55;14.3;;;2.21;;
32451;SDS011;45528;52.102;5.242;2023-05-16T00:44:07;12.4;;;2.21;;
32451;SDS011;45528;52.102;5.242;2023-05-16T00:45:44;15.1;;;2.21;;
32451;SDS011;45528;52.102;5.242;2023-05-16T00:47:19;12.2;;;2.21;;
32451;SDS011;45528;52.102;5.242;2023-05-16T00:50:32;15.1;;;1.9;;
32451;SDS011;45528;52.102;5.242;2023-05-16T00:52:09;12.8;;;2.21;;
32451;SDS011;45528;52.102;5.242;2023-05-16T00:53:45;13.4;;;2.0;;
32451;SDS011;45528;52.102;5.242;2023-05-16T00:55:21;12.9;;;2.31;;
32451;SDS011;45528;52.102;5.242;2023-05-16T00:58:34;10.8;;;1.9;;
32451;SDS011;45528;52.102;5.242;2023-05-16T01:00:11;10.3;;;2.0;;
32451;SDS011;45528;52.102;5.242;2023-05-16T01:01:48;14.8;;;2.1;;
32451;SDS011;45528;52.102;5.242;2023-05-16T01:05:02;12.7;;;2.0;;
32451;SDS011;45528;52.102;5.242;2023-05-16T01:06:39;13.4;;;2.0;;
32451;SDS011;45528;52.102;5.242;2023-05-16T01:08:16;13.3;;;1.9;;
32451;SDS011;45528;52.102;5.242;2023-05-16T01:11:30;15.3;;;2.21;;
32451;SDS011;45528;52.102;5.242;2023-05-16T01:13:16;15.6;;;1.9;;
32451;SDS011;45528;52.102;5.242;2023-05-16T01:14:59;13.2;;;2.0;;
32451;SDS011;45528;52.102;5.242;2023-05-16T01:16:41;17.41;;;2.1;;
32451;SDS011;45528;52.102;5.242;2023-05-16T01:18:27;15.5;;;2.1;;
32451;SDS011;45528;52.102;5.242;2023-05-16T01:22:05;13.3;;;2.1;;
32451;SDS011;45528;52.102;5.242;2023-05-16T01:23:50;12.0;;;2.31;;
32451;SDS011;45528;52.102;5.242;2023-05-16T01:25:31;9.5;;;1.9;;
32451;SDS011;45528;52.102;5.242;2023-05-16T01:27:19;12.3;;;1.8;;
32451;SDS011;45528;52.102;5.242;2023-05-16T01:28:58;13.3;;;2.21;;
32451;SDS011;45528;52.102;5.242;2023-05-16T01:32:15;12.5;;;2.0;;
32451;SDS011;45528;52.102;5.242;2023-05-16T01:33:51;14.0;;;2.4;;
32451;SDS011;45528;52.102;5.242;2023-05-16T01:35:27;14.1;;;2.21;;
32451;SDS011;45528;52.102;5.242;2023-05-16T01:39:00;13.8;;;2.21;;
32451;SDS011;45528;52.102;5.242;2023-05-16T01:40:44;17.2;;;2.21;;
32451;SDS011;45528;52.102;5.242;2023-05-16T01:42:28;13.5;;;1.9;;
32451;SDS011;45528;52.102;5.242;2023-05-16T01:44:12;17.3;;;2.5;;
32451;SDS011;45528;52.102;5.242;2023-05-16T01:46:02;12.2;;;2.21;;
32451;SDS011;45528;52.102;5.242;2023-05-16T01:47:46;11.4;;;1.9;;
32451;SDS011;45528;52.102;5.242;2023-05-16T01:51:18;13.0;;;2.31;;
32451;SDS011;45528;52.102;5.242;2023-05-16T01:52:58;15.6;;;2.1;;
32451;SDS011;45528;52.102;5.242;2023-05-16T01:54:38;16.5;;;2.5;;
32451;SDS011;45528;52.102;5.242;2023-05-16T01:56:19;16.0;;;1.9;;
32451;SDS011;45528;52.102;5.242;2023-05-16T01:59:35;16.4;;;2.4;;
32451;SDS011;45528;52.102;5.242;2023-05-16T02:01:13;12.6;;;2.1;;
32451;SDS011;45528;52.102;5.242;2023-05-16T02:02:49;11.0;;;2.0;;
32451;SDS011;45528;52.102;5.242;2023-05-16T02:04:25;11.6;;;2.21;;
32451;SDS011;45528;52.102;5.242;2023-05-16T02:07:38;11.8;;;2.0;;
32451;SDS011;45528;52.102;5.242;2023-05-16T02:09:14;14.0;;;2.1;;
32451;SDS011;45528;52.102;5.242;2023-05-16T02:10:50;11.1;;;1.8;;
32451;SDS011;45528;52.102;5.242;2023-05-16T02:14:02;15.5;;;2.4;;
32451;SDS011;45528;52.102;5.242;2023-05-16T02:15:38;16.3;;;2.31;;
32451;SDS011;45528;52.102;5.242;2023-05-16T02:17:14;12.1;;;2.1;;
32451;SDS011;45528;52.102;5.242;2023-05-16T02:20:27;12.1;;;2.0;;
32451;SDS011;45528;52.102;5.242;2023-05-16T02:22:03;12.5;;;2.1;;
32451;SDS011;45528;52.102;5.242;2023-05-16T02:23:39;12.3;;;2.21;;
32451;SDS011;45528;52.102;5.242;2023-05-16T02:26:51;14.4;;;2.5;;
32451;SDS011;45528;52.102;5.242;2023-05-16T02:28:28;13.4;;;2.1;;
32451;SDS011;45528;52.102;5.242;2023-05-16T02:30:04;13.1;;;2.0;;
32451;SDS011;45528;52.102;5.242;2023-05-16T02:31:41;14.6;;;2.21;;
32451;SDS011;45528;52.102;5.242;2023-05-16T02:34:53;10.9;;;2.1;;
32451;SDS011;45528;52.102;5.242;2023-05-16T02:36:29;12.0;;;2.31;;
32451;SDS011;45528;52.102;5.242;2023-05-16T02:38:07;8.1;;;1.7;;
32451;SDS011;45528;52.102;5.242;2023-05-16T02:41:19;12.4;;;2.0;;
32451;SDS011;45528;52.102;5.242;2023-05-16T02:42:55;15.7;;;2.1;;
32451;SDS011;45528;52.102;5.242;2023-05-16T02:44:31;12.4;;;2.4;;
32451;SDS011;45528;52.102;5.242;2023-05-16T02:47:56;12.9;;;1.7;;
32451;SDS011;45528;52.102;5.242;2023-05-16T02:49:32;13.5;;;2.21;;
32451;SDS011;45528;52.102;5.242;2023-05-16T02:51:08;14.9;;;2.0;;
32451;SDS011;45528;52.102;5.242;2023-05-16T02:52:44;13.6;;;2.1;;
32451;SDS011;45528;52.102;5.242;2023-05-16T02:55:56;12.6;;;1.9;;
32451;SDS011;45528;52.102;5.242;2023-05-16T02:57:33;10.9;;;2.1;;
32451;SDS011;45528;52.102;5.242;2023-05-16T02:59:09;11.7;;;2.31;;
32451;SDS011;45528;52.102;5.242;2023-05-16T03:02:22;12.3;;;2.4;;
32451;SDS011;45528;52.102;5.242;2023-05-16T03:03:58;13.5;;;2.21;;
32451;SDS011;45528;52.102;5.242;2023-05-16T03:05:34;10.5;;;2.0;;
32451;SDS011;45528;52.102;5.242;2023-05-16T03:07:10;16.8;;;2.4;;
32451;SDS011;45528;52.102;5.242;2023-05-16T03:10:23;11.1;;;2.0;;
32451;SDS011;45528;52.102;5.242;2023-05-16T03:11:59;10.9;;;2.1;;
32451;SDS011;45528;52.102;5.242;2023-05-16T03:13:35;8.71;;;2.1;;
32451;SDS011;45528;52.102;5.242;2023-05-16T03:16:47;13.9;;;2.31;;
32451;SDS011;45528;52.102;5.242;2023-05-16T03:18:24;15.0;;;2.1;;
32451;SDS011;45528;52.102;5.242;2023-05-16T03:19:59;14.6;;;2.31;;
32451;SDS011;45528;52.102;5.242;2023-05-16T03:23:11;17.11;;;2.4;;
32451;SDS011;45528;52.102;5.242;2023-05-16T03:24:47;12.3;;;2.31;;
32451;SDS011;45528;52.102;5.242;2023-05-16T03:26:24;14.9;;;2.0;;
32451;SDS011;45528;52.102;5.242;2023-05-16T03:29:36;15.7;;;2.6;;
32451;SDS011;45528;52.102;5.242;2023-05-16T03:31:12;12.5;;;2.31;;
32451;SDS011;45528;52.102;5.242;2023-05-16T03:32:48;12.8;;;2.5;;
32451;SDS011;45528;52.102;5.242;2023-05-16T03:34:24;15.4;;;2.4;;
32451;SDS011;45528;52.102;5.242;2023-05-16T03:37:37;15.1;;;2.31;;
32451;SDS011;45528;52.102;5.242;2023-05-16T03:39:13;16.4;;;2.21;;
32451;SDS011;45528;52.102;5.242;2023-05-16T03:40:49;15.1;;;2.0;;
32451;SDS011;45528;52.102;5.242;2023-05-16T03:44:01;17.91;;;2.7;;
32451;SDS011;45528;52.102;5.242;2023-05-16T03:45:37;15.3;;;2.6;;
32451;SDS011;45528;52.102;5.242;2023-05-16T03:47:14;16.4;;;2.6;;
32451;SDS011;45528;52.102;5.242;2023-05-16T03:50:26;15.2;;;2.4;;
32451;SDS011;45528;52.102;5.242;2023-05-16T03:52:02;16.11;;;2.7;;
32451;SDS011;45528;52.102;5.242;2023-05-16T03:53:38;12.7;;;2.4;;
32451;SDS011;45528;52.102;5.242;2023-05-16T03:55:14;9.31;;;2.1;;
32451;SDS011;45528;52.102;5.242;2023-05-16T03:58:27;12.0;;;2.0;;
32451;SDS011;45528;52.102;5.242;2023-05-16T04:00:03;11.8;;;2.5;;
32451;SDS011;45528;52.102;5.242;2023-05-16T04:01:42;10.1;;;2.21;;
32451;SDS011;45528;52.102;5.242;2023-05-16T04:04:54;18.8;;;3.4;;
32451;SDS011;45528;52.102;5.242;2023-05-16T04:06:31;14.3;;;2.8;;
32451;SDS011;45528;52.102;5.242;2023-05-16T04:08:07;12.6;;;2.5;;
32451;SDS011;45528;52.102;5.242;2023-05-16T04:11:19;15.6;;;2.4;;
32451;SDS011;45528;52.102;5.242;2023-05-16T04:12:55;16.9;;;2.6;;
32451;SDS011;45528;52.102;5.242;2023-05-16T04:14:32;14.8;;;2.4;;
32451;SDS011;45528;52.102;5.242;2023-05-16T04:16:10;11.1;;;2.21;;
32451;SDS011;45528;52.102;5.242;2023-05-16T04:19:22;13.1;;;2.1;;
32451;SDS011;45528;52.102;5.242;2023-05-16T04:20:58;12.9;;;2.21;;
32451;SDS011;45528;52.102;5.242;2023-05-16T04:22:34;13.3;;;2.4;;
32451;SDS011;45528;52.102;5.242;2023-05-16T04:25:47;13.0;;;2.6;;
32451;SDS011;45528;52.102;5.242;2023-05-16T04:27:23;10.3;;;2.7;;
32451;SDS011;45528;52.102;5.242;2023-05-16T04:28:59;12.9;;;2.6;;
32451;SDS011;45528;52.102;5.242;2023-05-16T04:32:11;14.8;;;2.9;;
32451;SDS011;45528;52.102;5.242;2023-05-16T04:33:47;14.3;;;2.4;;
32451;SDS011;45528;52.102;5.242;2023-05-16T04:35:24;17.5;;;3.0;;
32451;SDS011;45528;52.102;5.242;2023-05-16T04:38:38;15.9;;;2.7;;
32451;SDS011;45528;52.102;5.242;2023-05-16T04:40:14;12.9;;;2.4;;
32451;SDS011;45528;52.102;5.242;2023-05-16T04:41:50;11.9;;;2.5;;
32451;SDS011;45528;52.102;5.242;2023-05-16T04:43:26;14.2;;;2.7;;
32451;SDS011;45528;52.102;5.242;2023-05-16T04:46:40;15.4;;;2.6;;
32451;SDS011;45528;52.102;5.242;2023-05-16T04:48:16;9.0;;;2.0;;
32451;SDS011;45528;52.102;5.242;2023-05-16T04:49:52;10.6;;;2.5;;
32451;SDS011;45528;52.102;5.242;2023-05-16T04:53:04;11.2;;;2.5;;
32451;SDS011;45528;52.102;5.242;2023-05-16T04:54:40;13.3;;;2.9;;
32451;SDS011;45528;52.102;5.242;2023-05-16T04:56:17;10.4;;;2.31;;
32451;SDS011;45528;52.102;5.242;2023-05-16T04:59:29;12.8;;;2.4;;
32451;SDS011;45528;52.102;5.242;2023-05-16T05:01:05;8.1;;;2.1;;
32451;SDS011;45528;52.102;5.242;2023-05-16T05:02:41;12.8;;;2.1;;
32451;SDS011;45528;52.102;5.242;2023-05-16T05:04:18;13.1;;;1.8;;
32451;SDS011;45528;52.102;5.242;2023-05-16T05:07:30;12.2;;;2.0;;
32451;SDS011;45528;52.102;5.242;2023-05-16T05:09:07;10.4;;;2.1;;
32451;SDS011;45528;52.102;5.242;2023-05-16T05:10:43;9.6;;;2.1;;
32451;SDS011;45528;52.102;5.242;2023-05-16T05:13:56;10.3;;;2.0;;
32451;SDS011;45528;52.102;5.242;2023-05-16T05:15:32;16.5;;;2.8;;
32451;SDS011;45528;52.102;5.242;2023-05-16T05:17:08;10.9;;;2.31;;
32451;SDS011;45528;52.102;5.242;2023-05-16T05:20:20;8.9;;;1.7;;
32451;SDS011;45528;52.102;5.242;2023-05-16T05:21:56;12.9;;;2.21;;
32451;SDS011;45528;52.102;5.242;2023-05-16T05:23:33;12.0;;;1.9;;
32451;SDS011;45528;52.102;5.242;2023-05-16T05:26:45;11.1;;;1.5;;
32451;SDS011;45528;52.102;5.242;2023-05-16T05:28:21;13.2;;;2.1;;
32451;SDS011;45528;52.102;5.242;2023-05-16T05:29:56;12.6;;;2.1;;
32451;SDS011;45528;52.102;5.242;2023-05-16T05:31:32;12.3;;;1.8;;
32451;SDS011;45528;52.102;5.242;2023-05-16T05:34:46;12.3;;;2.1;;
32451;SDS011;45528;52.102;5.242;2023-05-16T05:36:22;11.9;;;1.9;;
32451;SDS011;45528;52.102;5.242;2023-05-16T05:38:00;14.3;;;2.21;;
32451;SDS011;45528;52.102;5.242;2023-05-16T05:41:11;9.4;;;2.0;;
32451;SDS011;45528;52.102;5.242;2023-05-16T05:42:48;8.2;;;2.0;;
32451;SDS011;45528;52.102;5.242;2023-05-16T05:44:24;9.31;;;2.21;;
32451;SDS011;45528;52.102;5.242;2023-05-16T05:47:36;12.2;;;2.4;;
32451;SDS011;45528;52.102;5.242;2023-05-16T05:49:12;11.0;;;1.8;;
32451;SDS011;45528;52.102;5.242;2023-05-16T05:50:48;11.2;;;2.0;;
32451;SDS011;45528;52.102;5.242;2023-05-16T05:52:25;12.7;;;2.1;;
32451;SDS011;45528;52.102;5.242;2023-05-16T05:55:38;11.8;;;2.0;;
32451;SDS011;45528;52.102;5.242;2023-05-16T05:57:14;11.0;;;1.9;;
32451;SDS011;45528;52.102;5.242;2023-05-16T05:58:50;8.2;;;1.7;;
32451;SDS011;45528;52.102;5.242;2023-05-16T06:02:03;10.7;;;1.9;;
32451;SDS011;45528;52.102;5.242;2023-05-16T06:03:39;9.5;;;1.6;;
32451;SDS011;45528;52.102;5.242;2023-05-16T06:05:15;12.2;;;2.1;;
32451;SDS011;45528;52.102;5.242;2023-05-16T06:08:27;13.9;;;1.7;;
32451;SDS011;45528;52.102;5.242;2023-05-16T06:10:04;8.4;;;1.4;;
32451;SDS011;45528;52.102;5.242;2023-05-16T06:11:41;11.9;;;1.9;;
32451;SDS011;45528;52.102;5.242;2023-05-16T06:14:53;9.1;;;1.8;;
32451;SDS011;45528;52.102;5.242;2023-05-16T06:16:29;9.9;;;1.7;;
32451;SDS011;45528;52.102;5.242;2023-05-16T06:18:05;11.7;;;1.5;;
32451;SDS011;45528;52.102;5.242;2023-05-16T06:19:42;8.4;;;2.0;;
32451;SDS011;45528;52.102;5.242;2023-05-16T06:22:54;11.2;;;1.5;;
32451;SDS011;45528;52.102;5.242;2023-05-16T06:24:30;10.9;;;1.6;;
32451;SDS011;45528;52.102;5.242;2023-05-16T06:26:06;10.7;;;1.4;;
32451;SDS011;45528;52.102;5.242;2023-05-16T06:29:19;10.21;;;1.6;;
32451;SDS011;45528;52.102;5.242;2023-05-16T06:30:55;12.0;;;1.5;;
32451;SDS011;45528;52.102;5.242;2023-05-16T06:32:31;7.5;;;1.7;;
32451;SDS011;45528;52.102;5.242;2023-05-16T06:35:43;7.2;;;1.5;;
32451;SDS011;45528;52.102;5.242;2023-05-16T06:37:19;9.1;;;1.5;;
32451;SDS011;45528;52.102;5.242;2023-05-16T06:38:57;8.6;;;1.3;;
32451;SDS011;45528;52.102;5.242;2023-05-16T06:40:33;8.0;;;1.4;;
32451;SDS011;45528;52.102;5.242;2023-05-16T06:43:45;11.0;;;1.5;;
32451;SDS011;45528;52.102;5.242;2023-05-16T06:45:21;7.8;;;1.3;;
32451;SDS011;45528;52.102;5.242;2023-05-16T06:46:57;8.9;;;1.4;;
32451;SDS011;45528;52.102;5.242;2023-05-16T06:50:10;7.0;;;1.2;;
32451;SDS011;45528;52.102;5.242;2023-05-16T06:51:46;7.0;;;1.2;;
32451;SDS011;45528;52.102;5.242;2023-05-16T06:53:22;6.4;;;1.2;;
32451;SDS011;45528;52.102;5.242;2023-05-16T06:56:34;10.3;;;1.11;;
32451;SDS011;45528;52.102;5.242;2023-05-16T06:58:11;8.6;;;1.3;;
32451;SDS011;45528;52.102;5.242;2023-05-16T06:59:47;7.6;;;1.2;;
32451;SDS011;45528;52.102;5.242;2023-05-16T07:02:59;5.3;;;1.2;;
32451;SDS011;45528;52.102;5.242;2023-05-16T07:04:34;6.4;;;1.4;;
32451;SDS011;45528;52.102;5.242;2023-05-16T07:06:11;7.2;;;1.3;;
32451;SDS011;45528;52.102;5.242;2023-05-16T07:07:47;6.5;;;1.4;;
32451;SDS011;45528;52.102;5.242;2023-05-16T07:10:59;7.6;;;1.2;;
32451;SDS011;45528;52.102;5.242;2023-05-16T07:12:35;7.8;;;1.11;;
32451;SDS011;45528;52.102;5.242;2023-05-16T07:14:11;8.81;;;1.3;;
32451;SDS011;45528;52.102;5.242;2023-05-16T07:17:24;5.2;;;1.3;;
32451;SDS011;45528;52.102;5.242;2023-05-16T07:19:00;6.0;;;1.11;;
32451;SDS011;45528;52.102;5.242;2023-05-16T07:20:36;6.5;;;1.2;;
32451;SDS011;45528;52.102;5.242;2023-05-16T07:23:49;7.2;;;1.0;;
32451;SDS011;45528;52.102;5.242;2023-05-16T07:25:25;8.6;;;1.3;;
32451;SDS011;45528;52.102;5.242;2023-05-16T07:27:01;9.6;;;1.3;;
32451;SDS011;45528;52.102;5.242;2023-05-16T07:30:13;5.5;;;1.11;;
32451;SDS011;45528;52.102;5.242;2023-05-16T07:31:50;6.8;;;1.2;;
32451;SDS011;45528;52.102;5.242;2023-05-16T07:33:26;8.31;;;1.4;;
32451;SDS011;45528;52.102;5.242;2023-05-16T07:35:02;6.5;;;1.3;;
32451;SDS011;45528;52.102;5.242;2023-05-16T07:38:16;8.5;;;1.3;;
32451;SDS011;45528;52.102;5.242;2023-05-16T07:39:52;10.0;;;1.3;;
32451;SDS011;45528;52.102;5.242;2023-05-16T07:41:29;7.4;;;1.11;;
32451;SDS011;45528;52.102;5.242;2023-05-16T07:44:42;5.8;;;1.11;;
32451;SDS011;45528;52.102;5.242;2023-05-16T07:46:18;9.1;;;1.11;;
32451;SDS011;45528;52.102;5.242;2023-05-16T07:47:54;9.0;;;1.2;;
32451;SDS011;45528;52.102;5.242;2023-05-16T07:51:06;5.6;;;0.9;;
32451;SDS011;45528;52.102;5.242;2023-05-16T07:52:43;7.1;;;1.2;;
32451;SDS011;45528;52.102;5.242;2023-05-16T07:54:19;6.6;;;0.9;;
32451;SDS011;45528;52.102;5.242;2023-05-16T07:55:55;6.5;;;1.2;;
32451;SDS011;45528;52.102;5.242;2023-05-16T07:59:07;7.0;;;1.0;;
32451;SDS011;45528;52.102;5.242;2023-05-16T08:00:44;9.0;;;1.5;;
32451;SDS011;45528;52.102;5.242;2023-05-16T08:02:20;8.6;;;1.4;;
32451;SDS011;45528;52.102;5.242;2023-05-16T08:05:33;5.8;;;1.11;;
32451;SDS011;45528;52.102;5.242;2023-05-16T08:07:09;6.9;;;1.2;;
32451;SDS011;45528;52.102;5.242;2023-05-16T08:08:46;7.3;;;1.5;;
32451;SDS011;45528;52.102;5.242;2023-05-16T08:11:58;7.1;;;1.2;;
32451;SDS011;45528;52.102;5.242;2023-05-16T08:13:34;7.3;;;1.3;;
32451;SDS011;45528;52.102;5.242;2023-05-16T08:15:10;7.6;;;1.3;;
32451;SDS011;45528;52.102;5.242;2023-05-16T08:16:46;6.7;;;1.2;;
32451;SDS011;45528;52.102;5.242;2023-05-16T08:19:58;5.11;;;1.11;;
32451;SDS011;45528;52.102;5.242;2023-05-16T08:21:35;6.5;;;1.2;;
32451;SDS011;45528;52.102;5.242;2023-05-16T08:23:11;7.6;;;1.11;;
32451;SDS011;45528;52.102;5.242;2023-05-16T08:26:25;5.3;;;0.9;;
32451;SDS011;45528;52.102;5.242;2023-05-16T08:28:01;6.2;;;1.11;;
32451;SDS011;45528;52.102;5.242;2023-05-16T08:29:38;7.6;;;1.0;;
32451;SDS011;45528;52.102;5.242;2023-05-16T08:32:50;6.7;;;0.9;;
32451;SDS011;45528;52.102;5.242;2023-05-16T08:34:26;7.1;;;1.11;;
32451;SDS011;45528;52.102;5.242;2023-05-16T08:36:04;6.1;;;1.0;;
32451;SDS011;45528;52.102;5.242;2023-05-16T08:37:41;7.6;;;1.0;;
32451;SDS011;45528;52.102;5.242;2023-05-16T08:40:55;6.1;;;1.2;;
32451;SDS011;45528;52.102;5.242;2023-05-16T08:42:32;5.6;;;0.8;;
32451;SDS011;45528;52.102;5.242;2023-05-16T08:44:08;5.8;;;1.2;;
32451;SDS011;45528;52.102;5.242;2023-05-16T08:47:20;5.6;;;1.0;;
32451;SDS011;45528;52.102;5.242;2023-05-16T08:49:01;6.1;;;1.0;;
32451;SDS011;45528;52.102;5.242;2023-05-16T08:50:39;7.0;;;1.11;;
32451;SDS011;45528;52.102;5.242;2023-05-16T08:53:56;5.3;;;1.11;;
32451;SDS011;45528;52.102;5.242;2023-05-16T08:55:37;4.3;;;0.9;;
32451;SDS011;45528;52.102;5.242;2023-05-16T08:57:16;5.9;;;1.0;;
32451;SDS011;45528;52.102;5.242;2023-05-16T08:58:53;8.1;;;1.2;;
32451;SDS011;45528;52.102;5.242;2023-05-16T09:02:06;9.5;;;1.2;;
32451;SDS011;45528;52.102;5.242;2023-05-16T09:03:43;5.8;;;1.11;;
32451;SDS011;45528;52.102;5.242;2023-05-16T09:05:20;5.11;;;1.0;;
32451;SDS011;45528;52.102;5.242;2023-05-16T09:08:34;6.7;;;1.11;;
32451;SDS011;45528;52.102;5.242;2023-05-16T09:10:10;7.3;;;1.11;;
32451;SDS011;45528;52.102;5.242;2023-05-16T09:11:47;8.31;;;1.11;;
32451;SDS011;45528;52.102;5.242;2023-05-16T09:13:24;4.8;;;1.0;;
32451;SDS011;45528;52.102;5.242;2023-05-16T09:16:39;6.9;;;1.11;;
32451;SDS011;45528;52.102;5.242;2023-05-16T09:18:15;3.7;;;0.9;;
32451;SDS011;45528;52.102;5.242;2023-05-16T09:19:51;7.3;;;1.11;;
32451;SDS011;45528;52.102;5.242;2023-05-16T09:23:05;5.9;;;1.11;;
32451;SDS011;45528;52.102;5.242;2023-05-16T09:24:42;4.8;;;1.2;;
32451;SDS011;45528;52.102;5.242;2023-05-16T09:26:20;8.2;;;1.11;;
32451;SDS011;45528;52.102;5.242;2023-05-16T09:27:57;6.0;;;1.0;;
32451;SDS011;45528;52.102;5.242;2023-05-16T09:31:18;3.4;;;0.8;;
32451;SDS011;45528;52.102;5.242;2023-05-16T09:32:56;5.11;;;1.0;;
32451;SDS011;45528;52.102;5.242;2023-05-16T09:34:36;5.7;;;0.9;;
32451;SDS011;45528;52.102;5.242;2023-05-16T09:37:50;4.0;;;0.8;;
32451;SDS011;45528;52.102;5.242;2023-05-16T09:39:26;5.3;;;1.0;;
32451;SDS011;45528;52.102;5.242;2023-05-16T09:41:02;7.3;;;1.0;;
32451;SDS011;45528;52.102;5.242;2023-05-16T09:42:38;6.1;;;0.9;;
32451;SDS011;45528;52.102;5.242;2023-05-16T09:45:53;3.2;;;0.9;;
32451;SDS011;45528;52.102;5.242;2023-05-16T09:47:29;3.5;;;0.8;;
32451;SDS011;45528;52.102;5.242;2023-05-16T09:49:05;5.0;;;0.9;;
32451;SDS011;45528;52.102;5.242;2023-05-16T09:52:25;6.3;;;1.0;;
32451;SDS011;45528;52.102;5.242;2023-05-16T09:54:01;4.0;;;0.9;;
32451;SDS011;45528;52.102;5.242;2023-05-16T09:55:42;5.4;;;0.8;;
32451;SDS011;45528;52.102;5.242;2023-05-16T09:57:18;8.31;;;1.0;;
32451;SDS011;45528;52.102;5.242;2023-05-16T10:00:31;8.71;;;1.2;;
32451;SDS011;45528;52.102;5.242;2023-05-16T10:02:08;5.0;;;0.9;;
32451;SDS011;45528;52.102;5.242;2023-05-16T10:03:45;8.4;;;1.3;;
32451;SDS011;45528;52.102;5.242;2023-05-16T10:07:00;5.9;;;1.0;;
32451;SDS011;45528;52.102;5.242;2023-05-16T10:08:38;8.0;;;1.2;;
32451;SDS011;45528;52.102;5.242;2023-05-16T10:10:17;8.0;;;1.2;;
32451;SDS011;45528;52.102;5.242;2023-05-16T10:11:54;4.3;;;0.9;;
32451;SDS011;45528;52.102;5.242;2023-05-16T10:15:10;5.11;;;1.0;;
32451;SDS011;45528;52.102;5.242;2023-05-16T10:16:46;5.3;;;0.8;;
32451;SDS011;45528;52.102;5.242;2023-05-16T10:18:27;6.1;;;1.2;;
32451;SDS011;45528;52.102;5.242;2023-05-16T10:21:47;6.3;;;0.9;;
32451;SDS011;45528;52.102;5.242;2023-05-16T10:23:27;5.0;;;1.0;;
32451;SDS011;45528;52.102;5.242;2023-05-16T10:25:07;6.4;;;1.0;;
32451;SDS011;45528;52.102;5.242;2023-05-16T10:26:50;4.7;;;1.11;;
32451;SDS011;45528;52.102;5.242;2023-05-16T10:30:04;8.31;;;1.11;;
32451;SDS011;45528;52.102;5.242;2023-05-16T10:31:42;6.4;;;1.0;;
32451;SDS011;45528;52.102;5.242;2023-05-16T10:33:18;6.0;;;1.11;;
32451;SDS011;45528;52.102;5.242;2023-05-16T10:34:55;6.8;;;1.4;;
32451;SDS011;45528;52.102;5.242;2023-05-16T10:38:07;6.0;;;0.9;;
32451;SDS011;45528;52.102;5.242;2023-05-16T10:39:46;6.3;;;1.2;;
32451;SDS011;45528;52.102;5.242;2023-05-16T10:41:22;3.8;;;0.8;;
32451;SDS011;45528;52.102;5.242;2023-05-16T10:44:38;5.6;;;1.0;;
32451;SDS011;45528;52.102;5.242;2023-05-16T10:46:14;4.8;;;1.0;;
32451;SDS011;45528;52.102;5.242;2023-05-16T10:47:51;5.3;;;0.9;;
32451;SDS011;45528;52.102;5.242;2023-05-16T10:51:32;6.6;;;0.8;;
32451;SDS011;45528;52.102;5.242;2023-05-16T10:53:18;6.0;;;1.11;;
32451;SDS011;45528;52.102;5.242;2023-05-16T10:54:56;5.9;;;1.0;;
32451;SDS011;45528;52.102;5.242;2023-05-16T10:56:38;5.8;;;1.0;;
32451;SDS011;45528;52.102;5.242;2023-05-16T10:58:17;5.2;;;1.0;;
32451;SDS011;45528;52.102;5.242;2023-05-16T11:01:33;8.2;;;1.3;;
32451;SDS011;45528;52.102;5.242;2023-05-16T11:03:18;4.1;;;0.8;;
32451;SDS011;45528;52.102;5.242;2023-05-16T11:04:58;5.2;;;0.8;;
32451;SDS011;45528;52.102;5.242;2023-05-16T11:06:51;5.8;;;1.0;;
32451;SDS011;45528;52.102;5.242;2023-05-16T11:08:28;5.3;;;1.11;;
32451;SDS011;45528;52.102;5.242;2023-05-16T11:11:44;5.0;;;0.9;;
32451;SDS011;45528;52.102;5.242;2023-05-16T11:13:23;4.5;;;1.0;;
32451;SDS011;45528;52.102;5.242;2023-05-16T11:14:59;6.6;;;0.9;;
32451;SDS011;45528;52.102;5.242;2023-05-16T11:18:13;6.9;;;1.2;;
32451;SDS011;45528;52.102;5.242;2023-05-16T11:19:53;3.9;;;0.8;;
32451;SDS011;45528;52.102;5.242;2023-05-16T11:22:37;3.7;;;1.0;;
32451;SDS011;45528;52.102;5.242;2023-05-16T11:24:29;6.4;;;1.0;;
32451;SDS011;45528;52.102;5.242;2023-05-16T11:26:07;2.8;;;0.8;;
32451;SDS011;45528;52.102;5.242;2023-05-16T11:27:43;5.6;;;0.9;;
32451;SDS011;45528;52.102;5.242;2023-05-16T11:29:22;4.41;;;0.9;;
32451;SDS011;45528;52.102;5.242;2023-05-16T11:32:36;4.3;;;0.8;;
32451;SDS011;45528;52.102;5.242;2023-05-16T11:34:16;4.8;;;1.0;;
32451;SDS011;45528;52.102;5.242;2023-05-16T11:36:00;2.7;;;0.8;;
32451;SDS011;45528;52.102;5.242;2023-05-16T11:39:14;4.2;;;1.0;;
32451;SDS011;45528;52.102;5.242;2023-05-16T11:40:50;5.8;;;1.3;;
32451;SDS011;45528;52.102;5.242;2023-05-16T11:42:28;5.3;;;1.0;;
32451;SDS011;45528;52.102;5.242;2023-05-16T11:44:05;4.2;;;0.9;;
32451;SDS011;45528;52.102;5.242;2023-05-16T11:47:17;5.8;;;1.11;;
32451;SDS011;45528;52.102;5.242;2023-05-16T11:48:53;4.7;;;0.9;;
32451;SDS011;45528;52.102;5.242;2023-05-16T11:50:29;5.6;;;1.0;;
32451;SDS011;45528;52.102;5.242;2023-05-16T11:53:45;6.7;;;1.0;;
32451;SDS011;45528;52.102;5.242;2023-05-16T11:55:22;3.3;;;0.7;;
32451;SDS011;45528;52.102;5.242;2023-05-16T11:57:01;5.11;;;0.9;;
32451;SDS011;45528;52.102;5.242;2023-05-16T11:58:37;6.4;;;1.0;;
32451;SDS011;45528;52.102;5.242;2023-05-16T12:01:52;5.8;;;0.9;;
32451;SDS011;45528;52.102;5.242;2023-05-16T12:03:29;4.0;;;0.9;;
32451;SDS011;45528;52.102;5.242;2023-05-16T12:05:06;4.1;;;0.9;;
32451;SDS011;45528;52.102;5.242;2023-05-16T12:08:19;5.8;;;0.9;;
32451;SDS011;45528;52.102;5.242;2023-05-16T12:09:56;4.41;;;1.0;;
32451;SDS011;45528;52.102;5.242;2023-05-16T12:11:32;5.11;;;1.0;;
32451;SDS011;45528;52.102;5.242;2023-05-16T12:14:46;5.3;;;1.0;;
32451;SDS011;45528;52.102;5.242;2023-05-16T12:16:22;4.5;;;0.9;;
32451;SDS011;45528;52.102;5.242;2023-05-16T12:17:58;5.9;;;1.2;;
32451;SDS011;45528;52.102;5.242;2023-05-16T12:19:35;3.8;;;0.9;;
32451;SDS011;45528;52.102;5.242;2023-05-16T12:22:48;9.21;;;1.11;;
32451;SDS011;45528;52.102;5.242;2023-05-16T12:24:28;5.11;;;1.11;;
32451;SDS011;45528;52.102;5.242;2023-05-16T12:26:05;4.91;;;1.0;;
32451;SDS011;45528;52.102;5.242;2023-05-16T12:29:17;7.0;;;1.0;;
32451;SDS011;45528;52.102;5.242;2023-05-16T12:30:55;5.8;;;1.0;;
32451;SDS011;45528;52.102;5.242;2023-05-16T12:32:35;4.61;;;0.9;;
32451;SDS011;45528;52.102;5.242;2023-05-16T12:34:13;5.6;;;1.2;;
32451;SDS011;45528;52.102;5.242;2023-05-16T12:37:26;5.11;;;0.9;;
32451;SDS011;45528;52.102;5.242;2023-05-16T12:39:02;8.9;;;1.11;;
32451;SDS011;45528;52.102;5.242;2023-05-16T12:40:40;5.3;;;1.0;;
32451;SDS011;45528;52.102;5.242;2023-05-16T12:44:05;4.7;;;1.0;;
32451;SDS011;45528;52.102;5.242;2023-05-16T12:45:41;5.2;;;1.0;;
32451;SDS011;45528;52.102;5.242;2023-05-16T12:47:23;7.1;;;1.11;;
32451;SDS011;45528;52.102;5.242;2023-05-16T12:49:09;7.3;;;1.11;;
32451;SDS011;45528;52.102;5.242;2023-05-16T12:52:23;6.2;;;0.9;;